createdAt,value
2023-05-20T00:00:49.092Z,5.35
2023-05-20T00:03:17.048Z,5.95
2023-05-20T00:05:44.406Z,3.88
2023-05-20T00:08:11.412Z,3.95
2023-05-20T00:10:39.066Z,7.22
2023-05-20T00:13:06.619Z,5.47
2023-05-20T00:15:34.867Z,8.05
2023-05-20T00:18:03.001Z,11.50
2023-05-20T00:20:30.428Z,6.28
2023-05-20T00:22:57.327Z,3.80
2023-05-20T00:25:24.213Z,5.45
2023-05-20T00:27:51.070Z,7.75
2023-05-20T00:30:17.998Z,6.07
2023-05-20T00:32:44.877Z,7.43
2023-05-20T00:35:11.880Z,6.30
2023-05-20T00:37:38.716Z,6.40
2023-05-20T00:40:06.694Z,8.23
2023-05-20T00:42:33.653Z,6.50
2023-05-20T00:45:01.120Z,6.35
2023-05-20T00:47:32.877Z,4.43
2023-05-20T00:50:01.187Z,8.07
2023-05-20T00:52:31.310Z,8.57
2023-05-20T00:54:59.822Z,8.57
2023-05-20T00:57:27.225Z,4.28
2023-05-20T00:59:54.270Z,5.57
2023-05-20T01:02:22.035Z,7.75
2023-05-20T01:04:49.180Z,6.18
2023-05-20T01:07:17.873Z,8.27
2023-05-20T01:09:45.533Z,4.88
2023-05-20T01:12:21.166Z,5.63
2023-05-20T01:15:09.710Z,8.40
2023-05-20T01:17:48.598Z,5.80
2023-05-20T01:20:17.050Z,4.35
2023-05-20T01:22:54.678Z,6.22
2023-05-20T01:25:22.002Z,6.45
2023-05-20T01:27:50.202Z,7.38
2023-05-20T01:30:17.540Z,10.45
2023-05-20T01:32:52.610Z,5.15
2023-05-20T01:35:23.121Z,5.72
2023-05-20T01:37:52.356Z,4.20
2023-05-20T01:40:21.188Z,4.70
2023-05-20T01:42:53.082Z,5.85
2023-05-20T01:45:20.973Z,8.45
2023-05-20T01:47:48.276Z,6.70
2023-05-20T01:50:15.236Z,5.45
2023-05-20T01:52:42.252Z,6.45
2023-05-20T01:55:09.770Z,5.53
2023-05-20T01:57:36.743Z,5.00
2023-05-20T02:00:04.660Z,5.20
2023-05-20T02:02:31.633Z,5.78
2023-05-20T02:04:58.554Z,5.95
2023-05-20T02:07:25.414Z,5.30
2023-05-20T02:09:52.520Z,7.93
2023-05-20T02:12:19.505Z,7.75
2023-05-20T02:14:47.851Z,5.60
2023-05-20T02:17:16.626Z,4.65
2023-05-20T02:19:45.412Z,6.95
2023-05-20T02:22:12.713Z,7.68
2023-05-20T02:24:39.641Z,8.45
2023-05-20T02:27:07.060Z,4.15
2023-05-20T02:29:34.206Z,5.68
2023-05-20T02:32:01.527Z,10.52
2023-05-20T02:34:30.362Z,6.55
2023-05-20T02:36:57.421Z,6.93
2023-05-20T02:39:24.299Z,6.15
2023-05-20T02:41:51.208Z,7.43
2023-05-20T02:44:18.185Z,5.53
2023-05-20T02:46:45.022Z,7.82
2023-05-20T02:49:11.969Z,8.73
2023-05-20T02:51:40.248Z,7.55
2023-05-20T02:54:07.119Z,4.70
2023-05-20T02:56:34.332Z,5.95
2023-05-20T02:59:01.551Z,7.85
2023-05-20T03:01:29.205Z,5.82
2023-05-20T03:03:56.289Z,8.40
2023-05-20T03:06:23.321Z,6.65
2023-05-20T03:08:50.194Z,6.30
2023-05-20T03:11:17.171Z,8.05
2023-05-20T03:13:44.021Z,7.63
2023-05-20T03:16:13.138Z,8.98
2023-05-20T03:18:40.790Z,5.35
2023-05-20T03:21:08.291Z,7.28
2023-05-20T03:23:35.550Z,8.55
2023-05-20T03:26:03.334Z,10.75
2023-05-20T03:28:30.182Z,5.68
2023-05-20T03:30:57.064Z,7.50
2023-05-20T03:33:26.326Z,5.47
2023-05-20T03:35:53.261Z,5.60
2023-05-20T03:38:20.291Z,6.43
2023-05-20T03:40:47.219Z,6.28
2023-05-20T03:43:14.052Z,8.23
2023-05-20T03:45:41.079Z,7.93
2023-05-20T03:48:08.331Z,8.00
2023-05-20T03:50:35.558Z,5.45
2023-05-20T03:53:02.473Z,7.20
2023-05-20T03:55:29.368Z,13.10
2023-05-20T03:57:56.367Z,5.10
2023-05-20T04:00:24.084Z,7.57
2023-05-20T04:02:51.155Z,6.13
2023-05-20T04:05:18.521Z,6.90
2023-05-20T04:07:45.518Z,5.68
2023-05-20T04:10:12.616Z,6.53
2023-05-20T04:12:39.818Z,6.10
2023-05-20T04:15:07.778Z,7.82
2023-05-20T04:17:37.690Z,6.72
2023-05-20T04:20:07.245Z,7.18
2023-05-20T04:22:34.900Z,6.18
2023-05-20T04:25:03.708Z,7.22
2023-05-20T04:27:31.413Z,6.18
2023-05-20T04:29:58.821Z,8.18
2023-05-20T04:32:27.026Z,6.00
2023-05-20T04:34:56.124Z,6.10
2023-05-20T04:37:23.010Z,6.38
2023-05-20T04:39:50.019Z,5.80
2023-05-20T04:42:21.627Z,9.40
2023-05-20T04:44:48.985Z,8.23
2023-05-20T04:47:15.911Z,7.45
2023-05-20T04:49:42.815Z,8.15
2023-05-20T04:52:09.931Z,7.13
2023-05-20T04:54:36.813Z,9.00
2023-05-20T04:57:03.920Z,8.95
2023-05-20T04:59:30.915Z,7.75
2023-05-20T05:01:57.885Z,8.15
2023-05-20T05:04:24.853Z,6.20
2023-05-20T05:06:51.883Z,8.38
2023-05-20T05:09:18.818Z,7.60
2023-05-20T05:11:45.663Z,6.55
2023-05-20T05:14:13.008Z,6.90
2023-05-20T05:16:39.892Z,5.85
2023-05-20T05:19:07.357Z,6.82
2023-05-20T05:21:34.498Z,5.55
2023-05-20T05:24:01.344Z,6.13
2023-05-20T05:26:28.218Z,6.50
2023-05-20T05:28:55.658Z,7.28
2023-05-20T05:31:22.664Z,6.32
2023-05-20T05:33:49.579Z,7.13
2023-05-20T05:36:17.324Z,9.73
2023-05-20T05:38:44.547Z,7.25
2023-05-20T05:41:11.543Z,8.32
2023-05-20T05:43:38.371Z,12.23
2023-05-20T05:46:05.320Z,8.18
2023-05-20T05:48:32.287Z,10.40
2023-05-20T05:50:59.175Z,7.32
2023-05-20T05:53:26.016Z,6.70
2023-05-20T05:55:52.952Z,7.43
2023-05-20T05:58:19.937Z,8.55
2023-05-20T06:00:46.967Z,8.52
2023-05-20T06:03:14.027Z,7.00
2023-05-20T06:05:40.965Z,6.78
2023-05-20T06:08:08.157Z,9.65
2023-05-20T06:10:35.023Z,8.20
2023-05-20T06:13:01.901Z,6.38
2023-05-20T06:15:28.796Z,6.93
2023-05-20T06:17:55.778Z,8.07
2023-05-20T06:20:22.802Z,6.00
2023-05-20T06:22:49.713Z,10.05
2023-05-20T06:25:16.714Z,6.57
2023-05-20T06:27:43.675Z,8.38
2023-05-20T06:30:11.453Z,8.52
2023-05-20T06:32:38.486Z,7.50
2023-05-20T06:35:06.076Z,8.38
2023-05-20T06:37:33.003Z,6.97
2023-05-20T06:39:59.861Z,9.13
2023-05-20T06:42:26.796Z,9.38
2023-05-20T06:44:53.672Z,8.82
2023-05-20T06:47:21.326Z,8.38
2023-05-20T06:49:48.241Z,7.30
2023-05-20T06:52:15.231Z,7.68
2023-05-20T06:54:43.292Z,6.90
2023-05-20T06:57:10.736Z,8.00
2023-05-20T06:59:37.837Z,7.13
2023-05-20T07:02:05.948Z,6.90
2023-05-20T07:04:32.939Z,7.50
2023-05-20T07:06:59.851Z,8.13
2023-05-20T07:09:26.746Z,8.30
2023-05-20T07:11:53.616Z,7.63
2023-05-20T07:14:20.538Z,12.07
2023-05-20T07:16:47.442Z,7.10
2023-05-20T07:19:14.406Z,7.93
2023-05-20T07:21:41.429Z,10.38
2023-05-20T07:24:08.328Z,6.63
2023-05-20T07:26:36.508Z,7.90
2023-05-20T07:29:07.031Z,7.95
2023-05-20T07:31:34.051Z,8.52
2023-05-20T07:34:01.603Z,9.45
2023-05-20T07:36:29.055Z,6.93
2023-05-20T07:39:02.938Z,7.07
2023-05-20T07:41:31.343Z,10.48
2023-05-20T07:43:58.342Z,14.00
2023-05-20T07:46:25.504Z,9.10
2023-05-20T07:48:52.674Z,8.75
2023-05-20T07:51:19.535Z,11.55
2023-05-20T07:53:46.478Z,8.85
2023-05-20T07:56:13.358Z,6.50
2023-05-20T07:58:43.806Z,9.10
2023-05-20T08:01:11.683Z,8.40
2023-05-20T08:03:38.809Z,9.75
2023-05-20T08:06:06.030Z,11.32
2023-05-20T08:08:33.393Z,10.80
2023-05-20T08:11:01.687Z,11.18
2023-05-20T08:13:28.596Z,8.23
2023-05-20T08:15:55.975Z,11.02
2023-05-20T08:18:23.478Z,8.80
2023-05-20T08:20:51.005Z,11.30
2023-05-20T08:23:17.962Z,8.57
2023-05-20T08:25:46.943Z,8.75
2023-05-20T08:28:14.433Z,7.90
2023-05-20T08:30:41.704Z,8.88
2023-05-20T08:33:08.963Z,9.00
2023-05-20T08:35:39.536Z,8.45
2023-05-20T08:38:07.225Z,9.40
2023-05-20T08:40:37.196Z,7.85
2023-05-20T08:43:04.999Z,8.68
2023-05-20T08:45:35.054Z,8.57
2023-05-20T08:48:05.398Z,11.05
2023-05-20T08:50:32.326Z,10.40
2023-05-20T08:53:00.022Z,11.15
2023-05-20T08:55:38.183Z,13.65
2023-05-20T08:58:05.268Z,8.00
2023-05-20T09:00:32.235Z,6.30
2023-05-20T09:03:01.170Z,7.18
2023-05-20T09:05:28.704Z,7.38
2023-05-20T09:08:09.932Z,10.05
2023-05-20T09:10:39.029Z,6.88
2023-05-20T09:13:07.785Z,10.13
2023-05-20T09:15:36.676Z,7.38
2023-05-20T09:18:08.958Z,9.38
2023-05-20T09:20:37.891Z,8.50
2023-05-20T09:23:07.988Z,9.48
2023-05-20T09:25:36.722Z,7.35
2023-05-20T09:28:08.799Z,11.40
2023-05-20T09:30:35.984Z,9.90
2023-05-20T09:33:05.968Z,8.32
2023-05-20T09:35:39.128Z,9.93
2023-05-20T09:38:10.049Z,9.23
2023-05-20T09:40:41.190Z,7.93
2023-05-20T09:43:08.940Z,14.38
2023-05-20T09:45:39.698Z,9.27
2023-05-20T09:48:10.779Z,11.02
2023-05-20T09:50:38.294Z,6.25
2023-05-20T09:53:06.997Z,9.40
2023-05-20T09:55:34.851Z,9.10
2023-05-20T09:58:06.527Z,8.07
2023-05-20T10:00:34.578Z,8.85
2023-05-20T10:03:01.907Z,8.55
2023-05-20T10:05:49.982Z,7.65
2023-05-20T10:09:13.966Z,10.15
2023-05-20T10:12:12.742Z,7.03
2023-05-20T10:15:04.460Z,8.05
2023-05-20T10:18:20.093Z,10.20
2023-05-20T10:20:51.352Z,9.20
2023-05-20T10:23:23.842Z,8.73
2023-05-20T10:25:56.006Z,8.25
2023-05-20T10:28:40.083Z,8.13
2023-05-20T10:31:22.381Z,8.30
2023-05-20T10:33:53.182Z,6.50
2023-05-20T10:36:28.403Z,11.45
2023-05-20T10:38:57.263Z,8.00
2023-05-20T10:41:31.290Z,8.10
2023-05-20T10:44:03.112Z,8.63
2023-05-20T10:46:41.798Z,7.57
2023-05-20T10:49:25.381Z,6.85
2023-05-20T10:51:54.476Z,7.65
2023-05-20T10:54:22.936Z,9.25
2023-05-20T10:56:54.200Z,7.55
2023-05-20T10:59:22.079Z,9.50
2023-05-20T11:01:49.600Z,9.27
2023-05-20T11:04:17.647Z,8.70
2023-05-20T11:06:55.937Z,6.85
2023-05-20T11:09:23.553Z,8.57
2023-05-20T11:11:52.535Z,8.88
2023-05-20T11:14:20.232Z,10.82
2023-05-20T11:16:51.739Z,7.20
2023-05-20T11:19:19.382Z,6.03
2023-05-20T11:21:48.198Z,6.28
2023-05-20T11:24:26.450Z,7.45
2023-05-20T11:26:58.061Z,9.68
2023-05-20T11:29:26.998Z,6.30
2023-05-20T11:31:57.830Z,6.10
2023-05-20T11:34:26.851Z,7.55
2023-05-20T11:36:59.112Z,6.75
2023-05-20T11:39:30.049Z,6.82
2023-05-20T11:41:58.402Z,7.07
2023-05-20T11:44:26.288Z,6.28
2023-05-20T11:47:01.509Z,9.40
2023-05-20T11:49:28.743Z,7.93
2023-05-20T11:51:57.261Z,4.38
2023-05-20T11:54:24.874Z,5.82
2023-05-20T11:56:54.062Z,6.18
2023-05-20T11:59:23.720Z,6.38
2023-05-20T12:01:50.733Z,10.70
2023-05-20T12:04:18.548Z,7.20
2023-05-20T12:06:46.793Z,9.00
2023-05-20T12:09:14.290Z,7.65
2023-05-20T12:11:42.095Z,6.53
2023-05-20T12:14:09.398Z,7.63
2023-05-20T12:16:37.931Z,5.95
2023-05-20T12:19:05.758Z,7.65
2023-05-20T12:21:32.963Z,7.22
2023-05-20T12:24:00.143Z,10.10
2023-05-20T12:26:29.493Z,7.13
2023-05-20T12:28:57.294Z,8.65
2023-05-20T12:31:25.311Z,10.10
2023-05-20T12:33:52.263Z,8.57
2023-05-20T12:36:19.877Z,6.63
2023-05-20T12:38:47.258Z,8.52
2023-05-20T12:41:14.239Z,7.97
2023-05-20T12:43:41.206Z,7.90
2023-05-20T12:46:08.412Z,5.03
2023-05-20T12:48:35.580Z,8.20
2023-05-20T12:51:02.497Z,6.10
2023-05-20T12:53:29.378Z,6.70
2023-05-20T12:55:56.366Z,9.73
2023-05-20T12:58:23.468Z,9.07
2023-05-20T13:00:50.459Z,8.52
2023-05-20T13:03:17.690Z,9.02
2023-05-20T13:05:44.930Z,7.93
2023-05-20T13:08:12.707Z,8.88
2023-05-20T13:10:39.654Z,11.07
2023-05-20T13:13:06.680Z,8.65
2023-05-20T13:15:33.792Z,8.52
2023-05-20T13:18:01.596Z,9.05
2023-05-20T13:20:29.939Z,5.68
2023-05-20T13:22:56.840Z,6.05
2023-05-20T13:25:23.893Z,6.40
2023-05-20T13:27:50.976Z,11.07
2023-05-20T13:30:18.075Z,7.53
2023-05-20T13:32:45.149Z,6.57
2023-05-20T13:35:13.184Z,6.70
2023-05-20T13:37:40.165Z,8.85
2023-05-20T13:40:08.642Z,5.90
2023-05-20T13:42:35.562Z,7.15
2023-05-20T13:45:02.592Z,6.85
2023-05-20T13:47:29.541Z,7.53
2023-05-20T13:49:56.942Z,7.10
2023-05-20T13:52:23.968Z,9.98
2023-05-20T13:54:50.952Z,8.65
2023-05-20T13:57:17.846Z,7.20
2023-05-20T13:59:44.804Z,10.10
2023-05-20T14:02:11.799Z,7.72
2023-05-20T14:04:39.945Z,11.88
2023-05-20T14:07:09.549Z,6.20
2023-05-20T14:09:36.899Z,6.82
2023-05-20T14:12:05.050Z,5.93
2023-05-20T14:14:32.068Z,6.38
2023-05-20T14:16:59.017Z,7.47
2023-05-20T14:19:27.133Z,8.35
2023-05-20T14:21:54.208Z,8.10
2023-05-20T14:24:23.434Z,7.70
2023-05-20T14:26:50.837Z,6.43
2023-05-20T14:29:17.837Z,6.90
2023-05-20T14:31:45.211Z,6.07
2023-05-20T14:34:12.205Z,7.25
2023-05-20T14:36:39.387Z,11.10
2023-05-20T14:39:06.362Z,12.27
2023-05-20T14:41:33.240Z,8.10
2023-05-20T14:44:00.144Z,8.20
2023-05-20T14:46:27.274Z,7.60
2023-05-20T14:48:54.248Z,6.97
2023-05-20T14:51:21.143Z,9.18
2023-05-20T14:53:48.054Z,7.40
2023-05-20T14:56:14.908Z,6.38
2023-05-20T14:58:42.044Z,9.63
2023-05-20T15:01:09.294Z,7.97
2023-05-20T15:03:36.771Z,11.80
2023-05-20T15:06:04.088Z,7.20
2023-05-20T15:08:31.446Z,10.07
2023-05-20T15:10:58.628Z,8.23
2023-05-20T15:13:25.612Z,7.50
2023-05-20T15:15:53.370Z,7.03
2023-05-20T15:18:20.338Z,7.30
2023-05-20T15:20:47.272Z,6.43
2023-05-20T15:23:14.159Z,11.50
2023-05-20T15:25:41.097Z,5.82
2023-05-20T15:28:07.979Z,6.35
2023-05-20T15:30:35.071Z,11.75
2023-05-20T15:33:02.933Z,8.50
2023-05-20T15:35:29.921Z,6.75
2023-05-20T15:37:56.940Z,10.00
2023-05-20T15:40:23.851Z,6.97
2023-05-20T15:42:51.494Z,6.35
2023-05-20T15:45:19.611Z,6.45
2023-05-20T15:47:46.662Z,7.93
2023-05-20T15:50:13.502Z,7.13
2023-05-20T15:52:40.542Z,5.70
2023-05-20T15:55:08.684Z,6.80
2023-05-20T15:57:35.690Z,9.30
2023-05-20T16:00:06.297Z,8.07
2023-05-20T16:02:36.113Z,10.13
2023-05-20T16:05:04.700Z,8.73
2023-05-20T16:07:31.749Z,9.85
2023-05-20T16:09:58.806Z,6.55
2023-05-20T16:12:25.938Z,6.85
2023-05-20T16:14:52.856Z,9.55
2023-05-20T16:17:21.731Z,5.55
2023-05-20T16:19:49.033Z,10.40
2023-05-20T16:22:16.442Z,6.75
2023-05-20T16:24:43.330Z,8.38
2023-05-20T16:27:11.528Z,7.38
2023-05-20T16:29:39.907Z,7.10
2023-05-20T16:32:07.715Z,7.55
2023-05-20T16:34:34.745Z,7.20
2023-05-20T16:37:01.917Z,6.43
2023-05-20T16:39:28.939Z,6.45
2023-05-20T16:41:55.954Z,10.13
2023-05-20T16:44:26.145Z,13.18
2023-05-20T16:46:55.983Z,7.38
2023-05-20T16:49:23.372Z,10.35
2023-05-20T16:51:52.282Z,7.82
2023-05-20T16:54:19.274Z,10.63
2023-05-20T16:56:46.384Z,12.40
2023-05-20T16:59:14.717Z,9.48
2023-05-20T17:01:41.742Z,10.07
2023-05-20T17:04:09.292Z,10.27
2023-05-20T17:06:36.239Z,7.57
2023-05-20T17:09:04.570Z,9.40
2023-05-20T17:11:31.551Z,11.25
2023-05-20T17:13:58.373Z,8.32
2023-05-20T17:16:25.562Z,9.50
2023-05-20T17:18:53.613Z,7.22
2023-05-20T17:21:20.814Z,10.85
2023-05-20T17:23:47.866Z,8.52
2023-05-20T17:26:15.796Z,7.30
2023-05-20T17:28:42.896Z,7.90
2023-05-20T17:31:09.891Z,7.53
2023-05-20T17:33:37.001Z,9.20
2023-05-20T17:36:04.693Z,14.80
2023-05-20T17:38:31.666Z,10.18
2023-05-20T17:40:58.577Z,19.67
2023-05-20T17:43:25.644Z,9.48
2023-05-20T17:45:52.669Z,6.97
2023-05-20T17:48:19.894Z,11.68
2023-05-20T17:50:46.767Z,11.20
2023-05-20T17:53:13.678Z,8.93
2023-05-20T17:55:40.764Z,11.90
2023-05-20T17:58:07.669Z,7.68
2023-05-20T18:00:41.922Z,10.43
2023-05-20T18:03:10.332Z,13.63
2023-05-20T18:05:37.604Z,10.02
2023-05-20T18:08:04.958Z,7.90
2023-05-20T18:10:31.800Z,7.53
2023-05-20T18:12:58.672Z,14.45
2023-05-20T18:15:25.717Z,7.63
2023-05-20T18:17:52.779Z,12.02
2023-05-20T18:20:19.921Z,33.97
2023-05-20T18:22:47.000Z,17.85
2023-05-20T18:25:15.044Z,11.13
2023-05-20T18:27:42.804Z,10.85
2023-05-20T18:30:10.710Z,10.45
2023-05-20T18:32:38.871Z,14.25
2023-05-20T18:35:06.822Z,12.15
2023-05-20T18:37:34.190Z,9.15
2023-05-20T18:40:01.142Z,9.77
2023-05-20T18:42:28.139Z,10.07
2023-05-20T18:44:55.056Z,11.30
2023-05-20T18:47:22.058Z,9.00
2023-05-20T18:49:48.993Z,10.98
2023-05-20T18:52:16.245Z,9.32
2023-05-20T18:54:43.150Z,10.52
2023-05-20T18:57:10.134Z,10.88
2023-05-20T18:59:37.062Z,9.25
2023-05-20T19:02:03.999Z,11.48
2023-05-20T19:04:31.535Z,23.45
2023-05-20T19:06:59.104Z,17.55
2023-05-20T19:09:26.275Z,12.10
2023-05-20T19:11:56.793Z,12.00
2023-05-20T19:14:23.727Z,9.13
2023-05-20T19:16:50.762Z,9.98
2023-05-20T19:19:18.063Z,10.52
2023-05-20T19:21:45.106Z,9.80
2023-05-20T19:24:12.040Z,9.98
2023-05-20T19:26:39.652Z,9.73
2023-05-20T19:29:06.955Z,11.95
2023-05-20T19:31:33.926Z,9.70
2023-05-20T19:34:00.857Z,11.68
2023-05-20T19:36:27.766Z,12.95
2023-05-20T19:38:54.675Z,12.95
2023-05-20T19:41:22.632Z,12.98
2023-05-20T19:43:49.568Z,11.65
2023-05-20T19:46:16.652Z,10.00
2023-05-20T19:48:43.607Z,12.50
2023-05-20T19:51:10.959Z,10.60
2023-05-20T19:53:38.632Z,11.40
2023-05-20T19:56:07.811Z,18.10
2023-05-20T19:58:34.716Z,10.45
2023-05-20T20:01:02.157Z,12.18
2023-05-20T20:03:29.042Z,9.23
2023-05-20T20:05:57.089Z,12.45
2023-05-20T20:08:24.209Z,14.60
2023-05-20T20:10:51.122Z,15.23
2023-05-20T20:13:18.170Z,16.50
2023-05-20T20:15:45.140Z,14.63
2023-05-20T20:18:12.134Z,17.98
2023-05-20T20:20:41.640Z,11.55
2023-05-20T20:23:09.625Z,12.48
2023-05-20T20:25:39.121Z,12.93
2023-05-20T20:28:07.870Z,11.63
2023-05-20T20:30:36.190Z,15.30
2023-05-20T20:33:06.438Z,16.95
2023-05-20T20:35:34.529Z,15.05
2023-05-20T20:38:08.329Z,14.38
2023-05-20T20:40:42.483Z,16.30
2023-05-20T20:43:11.173Z,12.88
2023-05-20T20:45:38.232Z,15.57
2023-05-20T20:48:07.887Z,15.77
2023-05-20T20:50:36.567Z,18.50
2023-05-20T20:53:03.812Z,15.15
2023-05-20T20:55:30.742Z,16.85
2023-05-20T20:58:02.699Z,14.38
2023-05-20T21:00:29.759Z,17.23
2023-05-20T21:02:56.805Z,19.33
2023-05-20T21:05:26.533Z,16.73
2023-05-20T21:07:58.321Z,15.43
2023-05-20T21:10:29.761Z,17.17
2023-05-20T21:12:59.758Z,15.60
2023-05-20T21:15:27.368Z,14.82
2023-05-20T21:17:54.464Z,17.13
2023-05-20T21:20:21.999Z,20.52
2023-05-20T21:22:49.060Z,17.17
2023-05-20T21:25:16.071Z,16.98
2023-05-20T21:27:42.998Z,15.02
2023-05-20T21:30:11.531Z,18.77
2023-05-20T21:32:39.193Z,18.20
2023-05-20T21:35:07.133Z,15.27
2023-05-20T21:37:33.993Z,14.80
2023-05-20T21:40:01.008Z,15.48
2023-05-20T21:42:27.942Z,17.55
2023-05-20T21:44:54.967Z,17.88
2023-05-20T21:47:21.861Z,15.95
2023-05-20T21:49:48.777Z,13.10
2023-05-20T21:52:15.758Z,18.00
2023-05-20T21:54:42.659Z,17.45
2023-05-20T21:57:09.558Z,17.25
2023-05-20T21:59:36.745Z,17.67
2023-05-20T22:02:04.019Z,16.02
2023-05-20T22:04:33.333Z,16.20
2023-05-20T22:07:00.397Z,15.70
2023-05-20T22:09:27.412Z,16.98
2023-05-20T22:11:54.481Z,14.18
2023-05-20T22:14:22.009Z,13.93
2023-05-20T22:16:49.002Z,14.10
2023-05-20T22:19:17.017Z,19.95
2023-05-20T22:21:50.644Z,24.80
2023-05-20T22:24:18.322Z,16.52
2023-05-20T22:26:45.370Z,16.10
2023-05-20T22:29:12.401Z,19.17
2023-05-20T22:31:39.419Z,15.75
2023-05-20T22:34:06.354Z,14.75
2023-05-20T22:36:34.218Z,16.70
2023-05-20T22:39:02.421Z,13.32
2023-05-20T22:41:29.448Z,17.13
2023-05-20T22:43:59.120Z,13.45
2023-05-20T22:46:26.346Z,15.50
2023-05-20T22:48:53.369Z,20.52
2023-05-20T22:51:21.754Z,15.10
2023-05-20T22:53:49.315Z,17.40
2023-05-20T22:56:17.552Z,14.82
2023-05-20T22:58:45.956Z,16.58
2023-05-20T23:01:13.286Z,20.05
2023-05-20T23:03:40.451Z,15.60
2023-05-20T23:06:07.337Z,14.30
2023-05-20T23:08:34.203Z,14.55
2023-05-20T23:11:01.167Z,16.65
2023-05-20T23:13:28.313Z,16.63
2023-05-20T23:15:55.204Z,16.02
2023-05-20T23:18:22.125Z,16.75
2023-05-20T23:20:49.165Z,14.38
2023-05-20T23:23:16.532Z,17.48
2023-05-20T23:25:45.841Z,18.42
2023-05-20T23:28:12.928Z,14.15
2023-05-20T23:30:39.938Z,16.65
2023-05-20T23:33:07.415Z,15.88
2023-05-20T23:35:34.564Z,16.27
2023-05-20T23:38:01.643Z,17.95
2023-05-20T23:40:28.519Z,17.42
2023-05-20T23:42:55.364Z,16.25
2023-05-20T23:45:22.260Z,16.80
2023-05-20T23:47:49.477Z,16.58
2023-05-20T23:50:16.605Z,18.00
2023-05-20T23:52:43.519Z,16.80
2023-05-20T23:55:13.413Z,22.27
2023-05-20T23:57:43.602Z,16.73
